sensor_id;sensor_type;location;lat;lon;timestamp;P1;durP1;ratioP1;P2;durP2;ratioP2
65092;SDS011;52025;50.288;2.794;2022-07-29T04:34:05;6.35;;;2.78;;
65092;SDS011;52025;50.288;2.794;2022-07-29T04:36:31;6.05;;;2.80;;
65092;SDS011;52025;50.288;2.794;2022-07-29T04:38:56;8.07;;;2.90;;
65092;SDS011;52025;50.288;2.794;2022-07-29T04:41:21;5.07;;;2.58;;
65092;SDS011;52025;50.288;2.794;2022-07-29T04:43:47;6.20;;;2.70;;
65092;SDS011;52025;50.288;2.794;2022-07-29T04:46:12;5.70;;;2.80;;
65092;SDS011;52025;50.288;2.794;2022-07-29T04:48:37;6.22;;;3.05;;
65092;SDS011;52025;50.288;2.794;2022-07-29T04:51:02;7.75;;;3.30;;
65092;SDS011;52025;50.288;2.794;2022-07-29T04:53:28;7.20;;;3.20;;
65092;SDS011;52025;50.288;2.794;2022-07-29T04:55:53;7.70;;;3.00;;
65092;SDS011;52025;50.288;2.794;2022-07-29T04:58:18;5.97;;;3.20;;
65092;SDS011;52025;50.288;2.794;2022-07-29T05:00:44;6.07;;;3.08;;
65092;SDS011;52025;50.288;2.794;2022-07-29T05:03:09;7.10;;;3.67;;
65092;SDS011;52025;50.288;2.794;2022-07-29T05:05:34;8.50;;;3.22;;
65092;SDS011;52025;50.288;2.794;2022-07-29T05:07:59;5.47;;;2.83;;
65092;SDS011;52025;50.288;2.794;2022-07-29T05:10:25;7.57;;;3.03;;
65092;SDS011;52025;50.288;2.794;2022-07-29T05:12:50;6.78;;;2.90;;
65092;SDS011;52025;50.288;2.794;2022-07-29T05:15:15;6.50;;;2.83;;
65092;SDS011;52025;50.288;2.794;2022-07-29T05:17:42;4.53;;;2.28;;
65092;SDS011;52025;50.288;2.794;2022-07-29T05:20:07;6.78;;;2.85;;
65092;SDS011;52025;50.288;2.794;2022-07-29T05:22:33;5.53;;;3.00;;
65092;SDS011;52025;50.288;2.794;2022-07-29T05:24:58;5.60;;;3.00;;
65092;SDS011;52025;50.288;2.794;2022-07-29T05:27:23;5.68;;;2.63;;
65092;SDS011;52025;50.288;2.794;2022-07-29T05:29:48;6.17;;;2.80;;
65092;SDS011;52025;50.288;2.794;2022-07-29T05:32:14;6.43;;;3.03;;
65092;SDS011;52025;50.288;2.794;2022-07-29T05:34:39;5.47;;;2.80;;
65092;SDS011;52025;50.288;2.794;2022-07-29T05:37:05;5.63;;;3.08;;
65092;SDS011;52025;50.288;2.794;2022-07-29T05:39:30;7.93;;;3.15;;
65092;SDS011;52025;50.288;2.794;2022-07-29T05:41:55;10.00;;;3.47;;
65092;SDS011;52025;50.288;2.794;2022-07-29T05:44:21;6.82;;;3.38;;
65092;SDS011;52025;50.288;2.794;2022-07-29T05:46:46;8.05;;;3.78;;
65092;SDS011;52025;50.288;2.794;2022-07-29T05:49:11;7.57;;;3.97;;
65092;SDS011;52025;50.288;2.794;2022-07-29T05:51:36;7.20;;;4.10;;
65092;SDS011;52025;50.288;2.794;2022-07-29T05:54:02;8.52;;;3.78;;
65092;SDS011;52025;50.288;2.794;2022-07-29T05:56:27;7.03;;;3.38;;
65092;SDS011;52025;50.288;2.794;2022-07-29T05:58:52;7.72;;;3.75;;
65092;SDS011;52025;50.288;2.794;2022-07-29T06:01:18;8.13;;;4.05;;
65092;SDS011;52025;50.288;2.794;2022-07-29T06:03:43;8.98;;;4.28;;
65092;SDS011;52025;50.288;2.794;2022-07-29T06:06:09;8.05;;;3.80;;
65092;SDS011;52025;50.288;2.794;2022-07-29T06:08:34;8.23;;;3.58;;
65092;SDS011;52025;50.288;2.794;2022-07-29T06:11:01;7.55;;;3.80;;
65092;SDS011;52025;50.288;2.794;2022-07-29T06:13:26;8.82;;;4.15;;
65092;SDS011;52025;50.288;2.794;2022-07-29T06:15:51;7.47;;;3.30;;
65092;SDS011;52025;50.288;2.794;2022-07-29T06:18:16;8.88;;;3.80;;
65092;SDS011;52025;50.288;2.794;2022-07-29T06:20:42;6.43;;;3.60;;
65092;SDS011;52025;50.288;2.794;2022-07-29T06:23:07;6.68;;;3.35;;
65092;SDS011;52025;50.288;2.794;2022-07-29T06:25:32;7.80;;;3.63;;
65092;SDS011;52025;50.288;2.794;2022-07-29T06:28:00;8.65;;;3.80;;
65092;SDS011;52025;50.288;2.794;2022-07-29T06:30:25;7.97;;;4.00;;
65092;SDS011;52025;50.288;2.794;2022-07-29T06:32:51;8.65;;;3.72;;
65092;SDS011;52025;50.288;2.794;2022-07-29T06:35:16;10.07;;;3.92;;
65092;SDS011;52025;50.288;2.794;2022-07-29T06:37:41;6.47;;;3.33;;
65092;SDS011;52025;50.288;2.794;2022-07-29T06:40:07;7.40;;;3.73;;
65092;SDS011;52025;50.288;2.794;2022-07-29T06:42:51;6.53;;;3.10;;
65092;SDS011;52025;50.288;2.794;2022-07-29T06:45:16;6.83;;;3.03;;
65092;SDS011;52025;50.288;2.794;2022-07-29T06:47:41;7.32;;;3.50;;
65092;SDS011;52025;50.288;2.794;2022-07-29T06:50:06;5.50;;;3.17;;
65092;SDS011;52025;50.288;2.794;2022-07-29T06:52:32;8.68;;;3.28;;
65092;SDS011;52025;50.288;2.794;2022-07-29T06:54:57;5.47;;;2.90;;
65092;SDS011;52025;50.288;2.794;2022-07-29T06:57:24;6.22;;;3.75;;
65092;SDS011;52025;50.288;2.794;2022-07-29T06:59:49;7.28;;;3.03;;
65092;SDS011;52025;50.288;2.794;2022-07-29T07:02:14;6.53;;;3.05;;
65092;SDS011;52025;50.288;2.794;2022-07-29T07:04:40;6.22;;;3.13;;
65092;SDS011;52025;50.288;2.794;2022-07-29T07:07:05;6.15;;;3.10;;
65092;SDS011;52025;50.288;2.794;2022-07-29T07:09:30;4.40;;;2.30;;
65092;SDS011;52025;50.288;2.794;2022-07-29T07:11:55;4.78;;;2.75;;
65092;SDS011;52025;50.288;2.794;2022-07-29T07:14:21;6.13;;;3.43;;
65092;SDS011;52025;50.288;2.794;2022-07-29T07:16:46;6.25;;;2.80;;
65092;SDS011;52025;50.288;2.794;2022-07-29T07:19:11;6.67;;;3.10;;
65092;SDS011;52025;50.288;2.794;2022-07-29T07:21:36;6.60;;;2.38;;
65092;SDS011;52025;50.288;2.794;2022-07-29T07:24:02;4.57;;;2.43;;
65092;SDS011;52025;50.288;2.794;2022-07-29T07:26:27;5.30;;;2.50;;
65092;SDS011;52025;50.288;2.794;2022-07-29T07:28:53;5.55;;;2.38;;
65092;SDS011;52025;50.288;2.794;2022-07-29T07:31:18;5.38;;;2.25;;
65092;SDS011;52025;50.288;2.794;2022-07-29T07:33:43;4.18;;;1.88;;
65092;SDS011;52025;50.288;2.794;2022-07-29T07:36:08;4.47;;;2.27;;
65092;SDS011;52025;50.288;2.794;2022-07-29T07:38:34;5.28;;;2.13;;
65092;SDS011;52025;50.288;2.794;2022-07-29T07:40:59;5.70;;;2.33;;
65092;SDS011;52025;50.288;2.794;2022-07-29T07:43:25;4.13;;;2.20;;
65092;SDS011;52025;50.288;2.794;2022-07-29T07:45:50;5.82;;;2.80;;
65092;SDS011;52025;50.288;2.794;2022-07-29T07:48:15;8.33;;;3.37;;
65092;SDS011;52025;50.288;2.794;2022-07-29T07:50:40;7.65;;;3.10;;
65092;SDS011;52025;50.288;2.794;2022-07-29T07:53:06;6.28;;;3.40;;
65092;SDS011;52025;50.288;2.794;2022-07-29T07:55:31;12.20;;;3.92;;
65092;SDS011;52025;50.288;2.794;2022-07-29T07:57:56;5.53;;;2.70;;
65092;SDS011;52025;50.288;2.794;2022-07-29T08:00:21;7.70;;;3.35;;
65092;SDS011;52025;50.288;2.794;2022-07-29T08:02:47;10.63;;;4.10;;
65092;SDS011;52025;50.288;2.794;2022-07-29T08:05:12;7.10;;;2.63;;
65092;SDS011;52025;50.288;2.794;2022-07-29T08:07:41;10.05;;;3.00;;
65092;SDS011;52025;50.288;2.794;2022-07-29T08:10:07;7.43;;;2.72;;
65092;SDS011;52025;50.288;2.794;2022-07-29T08:12:32;6.50;;;2.17;;
65092;SDS011;52025;50.288;2.794;2022-07-29T08:14:57;5.47;;;2.27;;
65092;SDS011;52025;50.288;2.794;2022-07-29T08:17:22;5.77;;;2.17;;
65092;SDS011;52025;50.288;2.794;2022-07-29T08:19:48;5.25;;;2.40;;
65092;SDS011;52025;50.288;2.794;2022-07-29T08:22:13;4.55;;;2.13;;
65092;SDS011;52025;50.288;2.794;2022-07-29T08:24:39;6.90;;;2.40;;
65092;SDS011;52025;50.288;2.794;2022-07-29T08:29:58;7.32;;;2.40;;
65092;SDS011;52025;50.288;2.794;2022-07-29T08:32:23;5.28;;;2.47;;
65092;SDS011;52025;50.288;2.794;2022-07-29T08:34:49;5.50;;;2.53;;
65092;SDS011;52025;50.288;2.794;2022-07-29T08:37:14;9.50;;;3.00;;
65092;SDS011;52025;50.288;2.794;2022-07-29T08:39:39;5.40;;;2.55;;
65092;SDS011;52025;50.288;2.794;2022-07-29T08:42:05;4.75;;;2.08;;
65092;SDS011;52025;50.288;2.794;2022-07-29T08:44:30;7.47;;;3.10;;
65092;SDS011;52025;50.288;2.794;2022-07-29T08:46:56;7.25;;;2.90;;
65092;SDS011;52025;50.288;2.794;2022-07-29T08:49:22;10.13;;;3.08;;
65092;SDS011;52025;50.288;2.794;2022-07-29T08:51:47;6.00;;;2.90;;
65092;SDS011;52025;50.288;2.794;2022-07-29T08:54:12;6.25;;;2.70;;
65092;SDS011;52025;50.288;2.794;2022-07-29T08:56:41;7.03;;;3.22;;
65092;SDS011;52025;50.288;2.794;2022-07-29T08:59:06;7.28;;;3.20;;
65092;SDS011;52025;50.288;2.794;2022-07-29T09:01:32;7.63;;;3.58;;
65092;SDS011;52025;50.288;2.794;2022-07-29T09:03:58;6.75;;;3.33;;
65092;SDS011;52025;50.288;2.794;2022-07-29T09:06:24;4.75;;;2.70;;
65092;SDS011;52025;50.288;2.794;2022-07-29T09:08:52;6.20;;;2.50;;
65092;SDS011;52025;50.288;2.794;2022-07-29T09:11:18;7.93;;;2.70;;
65092;SDS011;52025;50.288;2.794;2022-07-29T09:13:43;6.70;;;2.80;;
65092;SDS011;52025;50.288;2.794;2022-07-29T09:16:09;7.03;;;2.53;;
65092;SDS011;52025;50.288;2.794;2022-07-29T09:18:38;5.95;;;2.35;;
65092;SDS011;52025;50.288;2.794;2022-07-29T09:21:04;3.75;;;1.55;;
65092;SDS011;52025;50.288;2.794;2022-07-29T09:24:02;4.13;;;1.70;;
65092;SDS011;52025;50.288;2.794;2022-07-29T09:26:28;4.18;;;1.80;;
65092;SDS011;52025;50.288;2.794;2022-07-29T09:28:54;3.88;;;1.40;;
65092;SDS011;52025;50.288;2.794;2022-07-29T09:31:19;4.00;;;1.88;;
65092;SDS011;52025;50.288;2.794;2022-07-29T09:33:51;5.07;;;1.90;;
65092;SDS011;52025;50.288;2.794;2022-07-29T09:36:17;5.68;;;1.90;;
65092;SDS011;52025;50.288;2.794;2022-07-29T09:38:42;4.50;;;1.77;;
65092;SDS011;52025;50.288;2.794;2022-07-29T09:41:07;2.72;;;1.15;;
65092;SDS011;52025;50.288;2.794;2022-07-29T09:43:35;4.45;;;1.50;;
65092;SDS011;52025;50.288;2.794;2022-07-29T09:46:09;4.72;;;2.00;;
65092;SDS011;52025;50.288;2.794;2022-07-29T09:48:35;6.93;;;1.70;;
65092;SDS011;52025;50.288;2.794;2022-07-29T09:51:00;3.47;;;1.10;;
65092;SDS011;52025;50.288;2.794;2022-07-29T09:55:56;2.28;;;1.00;;
65092;SDS011;52025;50.288;2.794;2022-07-29T09:58:21;2.17;;;0.95;;
65092;SDS011;52025;50.288;2.794;2022-07-29T10:00:48;1.25;;;0.70;;
65092;SDS011;52025;50.288;2.794;2022-07-29T10:03:14;3.17;;;1.17;;
65092;SDS011;52025;50.288;2.794;2022-07-29T10:05:40;4.20;;;1.50;;
65092;SDS011;52025;50.288;2.794;2022-07-29T10:08:07;3.70;;;1.67;;
65092;SDS011;52025;50.288;2.794;2022-07-29T10:10:34;4.88;;;1.30;;
65092;SDS011;52025;50.288;2.794;2022-07-29T10:13:01;5.15;;;1.88;;
65092;SDS011;52025;50.288;2.794;2022-07-29T10:15:28;6.50;;;1.58;;
65092;SDS011;52025;50.288;2.794;2022-07-29T10:17:54;3.25;;;1.33;;
65092;SDS011;52025;50.288;2.794;2022-07-29T10:20:20;2.85;;;1.40;;
65092;SDS011;52025;50.288;2.794;2022-07-29T10:22:46;5.40;;;1.92;;
65092;SDS011;52025;50.288;2.794;2022-07-29T10:25:12;2.60;;;1.27;;
65092;SDS011;52025;50.288;2.794;2022-07-29T10:27:37;1.65;;;0.75;;
65092;SDS011;52025;50.288;2.794;2022-07-29T10:30:03;1.67;;;0.82;;
65092;SDS011;52025;50.288;2.794;2022-07-29T10:35:08;2.33;;;1.23;;
65092;SDS011;52025;50.288;2.794;2022-07-29T10:43:15;2.53;;;0.90;;
65092;SDS011;52025;50.288;2.794;2022-07-29T10:45:42;3.08;;;1.20;;
65092;SDS011;52025;50.288;2.794;2022-07-29T10:48:07;4.65;;;1.70;;
65092;SDS011;52025;50.288;2.794;2022-07-29T10:51:06;3.70;;;1.38;;
65092;SDS011;52025;50.288;2.794;2022-07-29T10:53:45;3.90;;;1.40;;
65092;SDS011;52025;50.288;2.794;2022-07-29T10:56:26;1.42;;;0.90;;
65092;SDS011;52025;50.288;2.794;2022-07-29T11:01:35;5.85;;;1.60;;
65092;SDS011;52025;50.288;2.794;2022-07-29T11:04:00;4.37;;;1.60;;
65092;SDS011;52025;50.288;2.794;2022-07-29T11:06:25;6.03;;;2.20;;
65092;SDS011;52025;50.288;2.794;2022-07-29T11:09:15;3.53;;;1.30;;
65092;SDS011;52025;50.288;2.794;2022-07-29T11:11:41;2.03;;;1.10;;
65092;SDS011;52025;50.288;2.794;2022-07-29T11:14:06;2.17;;;0.85;;
65092;SDS011;52025;50.288;2.794;2022-07-29T11:21:44;2.67;;;1.20;;
65092;SDS011;52025;50.288;2.794;2022-07-29T11:24:20;3.17;;;1.33;;
65092;SDS011;52025;50.288;2.794;2022-07-29T11:27:04;2.67;;;1.00;;
65092;SDS011;52025;50.288;2.794;2022-07-29T11:29:30;2.90;;;1.20;;
65092;SDS011;52025;50.288;2.794;2022-07-29T11:31:57;0.93;;;0.50;;
65092;SDS011;52025;50.288;2.794;2022-07-29T11:34:33;6.22;;;2.42;;
65092;SDS011;52025;50.288;2.794;2022-07-29T11:39:36;1.63;;;1.00;;
65092;SDS011;52025;50.288;2.794;2022-07-29T11:47:24;5.47;;;1.60;;
65092;SDS011;52025;50.288;2.794;2022-07-29T11:49:50;4.18;;;1.20;;
65092;SDS011;52025;50.288;2.794;2022-07-29T11:52:16;3.88;;;1.50;;
65092;SDS011;52025;50.288;2.794;2022-07-29T11:54:41;2.08;;;0.85;;
65092;SDS011;52025;50.288;2.794;2022-07-29T11:57:07;4.70;;;1.88;;
65092;SDS011;52025;50.288;2.794;2022-07-29T11:59:38;2.63;;;1.13;;
65092;SDS011;52025;50.288;2.794;2022-07-29T12:02:03;5.20;;;1.25;;
65092;SDS011;52025;50.288;2.794;2022-07-29T12:04:29;4.65;;;1.83;;
65092;SDS011;52025;50.288;2.794;2022-07-29T12:06:55;2.80;;;1.17;;
65092;SDS011;52025;50.288;2.794;2022-07-29T12:09:21;3.65;;;1.40;;
65092;SDS011;52025;50.288;2.794;2022-07-29T12:11:47;1.27;;;0.70;;
65092;SDS011;52025;50.288;2.794;2022-07-29T12:14:33;1.90;;;0.93;;
65092;SDS011;52025;50.288;2.794;2022-07-29T12:16:58;3.50;;;1.25;;
65092;SDS011;52025;50.288;2.794;2022-07-29T12:19:23;1.58;;;0.90;;
65092;SDS011;52025;50.288;2.794;2022-07-29T12:21:53;1.23;;;0.63;;
65092;SDS011;52025;50.288;2.794;2022-07-29T12:24:18;2.58;;;0.90;;
65092;SDS011;52025;50.288;2.794;2022-07-29T12:29:18;6.35;;;1.63;;
65092;SDS011;52025;50.288;2.794;2022-07-29T12:31:44;3.17;;;1.40;;
65092;SDS011;52025;50.288;2.794;2022-07-29T12:34:13;3.17;;;1.10;;
65092;SDS011;52025;50.288;2.794;2022-07-29T12:36:39;4.38;;;1.20;;
65092;SDS011;52025;50.288;2.794;2022-07-29T12:39:04;1.30;;;0.80;;
65092;SDS011;52025;50.288;2.794;2022-07-29T12:41:30;2.67;;;1.10;;
65092;SDS011;52025;50.288;2.794;2022-07-29T12:43:55;2.15;;;0.90;;
65092;SDS011;52025;50.288;2.794;2022-07-29T12:46:20;2.65;;;1.27;;
65092;SDS011;52025;50.288;2.794;2022-07-29T12:48:49;2.38;;;1.15;;
65092;SDS011;52025;50.288;2.794;2022-07-29T12:51:14;3.72;;;1.20;;
65092;SDS011;52025;50.288;2.794;2022-07-29T12:53:41;2.60;;;1.02;;
65092;SDS011;52025;50.288;2.794;2022-07-29T12:56:26;3.22;;;0.88;;
65092;SDS011;52025;50.288;2.794;2022-07-29T12:58:51;0.63;;;0.60;;
65092;SDS011;52025;50.288;2.794;2022-07-29T13:01:17;2.80;;;1.30;;
65092;SDS011;52025;50.288;2.794;2022-07-29T13:03:50;3.88;;;1.20;;
65092;SDS011;52025;50.288;2.794;2022-07-29T13:08:58;0.65;;;0.50;;
65092;SDS011;52025;50.288;2.794;2022-07-29T13:12:06;6.10;;;1.65;;
65092;SDS011;52025;50.288;2.794;2022-07-29T13:14:13;3.50;;;1.10;;
65092;SDS011;52025;50.288;2.794;2022-07-29T13:19:31;2.38;;;1.10;;
65092;SDS011;52025;50.288;2.794;2022-07-29T13:21:57;4.03;;;1.23;;
65092;SDS011;52025;50.288;2.794;2022-07-29T13:24:22;2.30;;;0.90;;
65092;SDS011;52025;50.288;2.794;2022-07-29T13:26:47;3.63;;;1.08;;
65092;SDS011;52025;50.288;2.794;2022-07-29T13:29:12;2.17;;;1.10;;
65092;SDS011;52025;50.288;2.794;2022-07-29T13:31:37;4.53;;;1.50;;
65092;SDS011;52025;50.288;2.794;2022-07-29T13:34:03;2.00;;;1.05;;
65092;SDS011;52025;50.288;2.794;2022-07-29T13:36:28;2.83;;;0.93;;
65092;SDS011;52025;50.288;2.794;2022-07-29T13:38:54;2.77;;;1.20;;
65092;SDS011;52025;50.288;2.794;2022-07-29T13:41:19;2.50;;;0.60;;
65092;SDS011;52025;50.288;2.794;2022-07-29T13:43:44;2.03;;;1.02;;
65092;SDS011;52025;50.288;2.794;2022-07-29T13:46:09;1.90;;;0.87;;
65092;SDS011;52025;50.288;2.794;2022-07-29T13:48:35;2.28;;;1.20;;
65092;SDS011;52025;50.288;2.794;2022-07-29T13:51:00;3.47;;;1.20;;
65092;SDS011;52025;50.288;2.794;2022-07-29T13:53:25;1.25;;;0.70;;
65092;SDS011;52025;50.288;2.794;2022-07-29T13:55:51;1.15;;;0.63;;
65092;SDS011;52025;50.288;2.794;2022-07-29T13:58:17;1.98;;;0.93;;
65092;SDS011;52025;50.288;2.794;2022-07-29T14:00:42;2.27;;;0.77;;
65092;SDS011;52025;50.288;2.794;2022-07-29T14:03:07;0.50;;;0.40;;
65092;SDS011;52025;50.288;2.794;2022-07-29T14:05:32;1.30;;;0.70;;
65092;SDS011;52025;50.288;2.794;2022-07-29T14:07:57;1.65;;;0.90;;
65092;SDS011;52025;50.288;2.794;2022-07-29T14:10:23;1.85;;;1.00;;
65092;SDS011;52025;50.288;2.794;2022-07-29T14:12:48;0.80;;;0.63;;
65092;SDS011;52025;50.288;2.794;2022-07-29T14:15:13;0.67;;;0.57;;
65092;SDS011;52025;50.288;2.794;2022-07-29T14:17:38;1.50;;;0.70;;
65092;SDS011;52025;50.288;2.794;2022-07-29T14:20:04;2.57;;;0.93;;
65092;SDS011;52025;50.288;2.794;2022-07-29T14:22:29;2.53;;;0.88;;
65092;SDS011;52025;50.288;2.794;2022-07-29T14:24:54;2.10;;;0.95;;
65092;SDS011;52025;50.288;2.794;2022-07-29T14:27:20;3.75;;;1.50;;
65092;SDS011;52025;50.288;2.794;2022-07-29T14:29:45;1.73;;;0.80;;
65092;SDS011;52025;50.288;2.794;2022-07-29T14:32:10;2.47;;;1.00;;
65092;SDS011;52025;50.288;2.794;2022-07-29T14:34:36;1.75;;;0.95;;
65092;SDS011;52025;50.288;2.794;2022-07-29T14:37:02;1.85;;;0.90;;
65092;SDS011;52025;50.288;2.794;2022-07-29T14:39:30;2.05;;;1.02;;
65092;SDS011;52025;50.288;2.794;2022-07-29T14:41:55;1.75;;;1.02;;
65092;SDS011;52025;50.288;2.794;2022-07-29T14:44:23;3.17;;;0.90;;
65092;SDS011;52025;50.288;2.794;2022-07-29T14:46:49;2.92;;;1.00;;
65092;SDS011;52025;50.288;2.794;2022-07-29T14:49:14;3.85;;;1.20;;
65092;SDS011;52025;50.288;2.794;2022-07-29T14:51:39;0.85;;;0.73;;
65092;SDS011;52025;50.288;2.794;2022-07-29T14:54:05;1.27;;;0.75;;
65092;SDS011;52025;50.288;2.794;2022-07-29T14:56:30;2.22;;;1.00;;
65092;SDS011;52025;50.288;2.794;2022-07-29T14:58:56;3.33;;;1.40;;
65092;SDS011;52025;50.288;2.794;2022-07-29T15:01:21;1.48;;;0.82;;
65092;SDS011;52025;50.288;2.794;2022-07-29T15:03:46;2.42;;;1.02;;
65092;SDS011;52025;50.288;2.794;2022-07-29T15:06:12;3.25;;;0.90;;
65092;SDS011;52025;50.288;2.794;2022-07-29T15:08:37;0.68;;;0.60;;
65092;SDS011;52025;50.288;2.794;2022-07-29T15:11:02;1.42;;;0.80;;
65092;SDS011;52025;50.288;2.794;2022-07-29T15:13:27;0.33;;;0.33;;
65092;SDS011;52025;50.288;2.794;2022-07-29T15:15:53;1.73;;;0.70;;
65092;SDS011;52025;50.288;2.794;2022-07-29T15:18:18;0.50;;;0.50;;
65092;SDS011;52025;50.288;2.794;2022-07-29T15:20:43;1.77;;;0.80;;
65092;SDS011;52025;50.288;2.794;2022-07-29T15:23:11;3.50;;;1.30;;
65092;SDS011;52025;50.288;2.794;2022-07-29T15:25:37;2.10;;;1.00;;
65092;SDS011;52025;50.288;2.794;2022-07-29T15:28:06;1.13;;;0.55;;
65092;SDS011;52025;50.288;2.794;2022-07-29T15:30:32;1.27;;;0.80;;
65092;SDS011;52025;50.288;2.794;2022-07-29T15:32:58;1.08;;;0.70;;
65092;SDS011;52025;50.288;2.794;2022-07-29T15:35:23;2.15;;;1.00;;
65092;SDS011;52025;50.288;2.794;2022-07-29T15:37:50;0.90;;;0.60;;
65092;SDS011;52025;50.288;2.794;2022-07-29T15:40:16;1.85;;;0.73;;
65092;SDS011;52025;50.288;2.794;2022-07-29T15:42:41;2.15;;;0.95;;
65092;SDS011;52025;50.288;2.794;2022-07-29T15:45:06;1.48;;;0.60;;
65092;SDS011;52025;50.288;2.794;2022-07-29T15:47:32;1.10;;;0.65;;
65092;SDS011;52025;50.288;2.794;2022-07-29T15:49:59;2.33;;;1.10;;
65092;SDS011;52025;50.288;2.794;2022-07-29T15:52:25;1.67;;;0.75;;
65092;SDS011;52025;50.288;2.794;2022-07-29T15:54:51;0.60;;;0.60;;
65092;SDS011;52025;50.288;2.794;2022-07-29T15:57:16;0.82;;;0.65;;
65092;SDS011;52025;50.288;2.794;2022-07-29T15:59:42;2.03;;;1.10;;
65092;SDS011;52025;50.288;2.794;2022-07-29T16:02:07;2.50;;;1.05;;
65092;SDS011;52025;50.288;2.794;2022-07-29T16:04:32;1.42;;;0.98;;
65092;SDS011;52025;50.288;2.794;2022-07-29T16:06:58;0.93;;;0.70;;
65092;SDS011;52025;50.288;2.794;2022-07-29T16:09:23;1.43;;;0.90;;
65092;SDS011;52025;50.288;2.794;2022-07-29T16:11:48;2.55;;;1.05;;
65092;SDS011;52025;50.288;2.794;2022-07-29T16:14:15;3.90;;;1.58;;
65092;SDS011;52025;50.288;2.794;2022-07-29T16:16:40;2.78;;;1.30;;
65092;SDS011;52025;50.288;2.794;2022-07-29T16:19:06;0.85;;;0.70;;
65092;SDS011;52025;50.288;2.794;2022-07-29T16:21:33;2.17;;;1.23;;
65092;SDS011;52025;50.288;2.794;2022-07-29T16:23:59;3.03;;;1.40;;
65092;SDS011;52025;50.288;2.794;2022-07-29T16:26:25;1.65;;;1.10;;
65092;SDS011;52025;50.288;2.794;2022-07-29T16:28:51;2.58;;;1.60;;
65092;SDS011;52025;50.288;2.794;2022-07-29T16:31:16;2.50;;;1.20;;
65092;SDS011;52025;50.288;2.794;2022-07-29T16:33:45;1.73;;;1.10;;
65092;SDS011;52025;50.288;2.794;2022-07-29T16:36:11;3.43;;;1.43;;
65092;SDS011;52025;50.288;2.794;2022-07-29T16:38:36;2.87;;;1.33;;
65092;SDS011;52025;50.288;2.794;2022-07-29T16:41:02;2.00;;;1.10;;
65092;SDS011;52025;50.288;2.794;2022-07-29T16:43:27;5.70;;;2.15;;
65092;SDS011;52025;50.288;2.794;2022-07-29T16:45:52;4.57;;;1.73;;
65092;SDS011;52025;50.288;2.794;2022-07-29T16:48:17;3.38;;;1.40;;
65092;SDS011;52025;50.288;2.794;2022-07-29T16:50:43;3.58;;;1.40;;
65092;SDS011;52025;50.288;2.794;2022-07-29T16:53:08;4.20;;;1.50;;
65092;SDS011;52025;50.288;2.794;2022-07-29T16:55:34;3.28;;;1.83;;
65092;SDS011;52025;50.288;2.794;2022-07-29T16:57:59;3.47;;;1.65;;
65092;SDS011;52025;50.288;2.794;2022-07-29T17:00:24;2.80;;;1.60;;
65092;SDS011;52025;50.288;2.794;2022-07-29T17:02:50;3.42;;;1.67;;
65092;SDS011;52025;50.288;2.794;2022-07-29T17:05:15;2.50;;;1.20;;
65092;SDS011;52025;50.288;2.794;2022-07-29T17:07:40;3.70;;;1.63;;
65092;SDS011;52025;50.288;2.794;2022-07-29T17:10:06;5.10;;;2.00;;
65092;SDS011;52025;50.288;2.794;2022-07-29T17:12:32;2.65;;;1.20;;
65092;SDS011;52025;50.288;2.794;2022-07-29T17:14:57;4.75;;;1.77;;
65092;SDS011;52025;50.288;2.794;2022-07-29T17:17:23;3.13;;;1.50;;
65092;SDS011;52025;50.288;2.794;2022-07-29T17:19:48;2.75;;;1.30;;
65092;SDS011;52025;50.288;2.794;2022-07-29T17:22:13;3.63;;;1.60;;
65092;SDS011;52025;50.288;2.794;2022-07-29T17:24:39;4.80;;;1.53;;
65092;SDS011;52025;50.288;2.794;2022-07-29T17:27:04;4.43;;;1.50;;
65092;SDS011;52025;50.288;2.794;2022-07-29T17:29:30;2.83;;;1.40;;
65092;SDS011;52025;50.288;2.794;2022-07-29T17:31:55;5.38;;;2.28;;
65092;SDS011;52025;50.288;2.794;2022-07-29T17:34:21;9.30;;;1.70;;
65092;SDS011;52025;50.288;2.794;2022-07-29T17:36:46;2.85;;;1.30;;
65092;SDS011;52025;50.288;2.794;2022-07-29T17:39:12;3.67;;;1.43;;
65092;SDS011;52025;50.288;2.794;2022-07-29T17:44:30;1.98;;;1.00;;
65092;SDS011;52025;50.288;2.794;2022-07-29T17:46:55;2.63;;;1.20;;
65092;SDS011;52025;50.288;2.794;2022-07-29T17:49:20;3.35;;;1.35;;
65092;SDS011;52025;50.288;2.794;2022-07-29T17:51:46;2.37;;;1.30;;
65092;SDS011;52025;50.288;2.794;2022-07-29T17:54:11;2.60;;;1.23;;
65092;SDS011;52025;50.288;2.794;2022-07-29T17:56:36;2.83;;;1.10;;
65092;SDS011;52025;50.288;2.794;2022-07-29T17:59:01;3.65;;;1.15;;
65092;SDS011;52025;50.288;2.794;2022-07-29T18:01:30;3.30;;;1.05;;
65092;SDS011;52025;50.288;2.794;2022-07-29T18:03:56;2.92;;;1.13;;
65092;SDS011;52025;50.288;2.794;2022-07-29T18:06:21;4.03;;;1.50;;
65092;SDS011;52025;50.288;2.794;2022-07-29T18:08:46;3.33;;;1.10;;
65092;SDS011;52025;50.288;2.794;2022-07-29T18:11:12;2.28;;;1.08;;
65092;SDS011;52025;50.288;2.794;2022-07-29T18:13:38;4.75;;;1.50;;
65092;SDS011;52025;50.288;2.794;2022-07-29T18:16:03;4.40;;;1.50;;
65092;SDS011;52025;50.288;2.794;2022-07-29T18:18:30;3.33;;;1.58;;
65092;SDS011;52025;50.288;2.794;2022-07-29T18:20:55;2.33;;;1.30;;
65092;SDS011;52025;50.288;2.794;2022-07-29T18:23:20;3.53;;;1.30;;
65092;SDS011;52025;50.288;2.794;2022-07-29T18:25:45;3.15;;;1.20;;
65092;SDS011;52025;50.288;2.794;2022-07-29T18:28:10;3.20;;;1.20;;
65092;SDS011;52025;50.288;2.794;2022-07-29T18:30:36;3.10;;;0.90;;
65092;SDS011;52025;50.288;2.794;2022-07-29T18:33:02;4.40;;;1.23;;
65092;SDS011;52025;50.288;2.794;2022-07-29T18:35:27;3.78;;;1.20;;
65092;SDS011;52025;50.288;2.794;2022-07-29T18:37:52;3.80;;;1.40;;
65092;SDS011;52025;50.288;2.794;2022-07-29T18:40:19;3.55;;;1.10;;
65092;SDS011;52025;50.288;2.794;2022-07-29T18:42:45;5.72;;;1.30;;
65092;SDS011;52025;50.288;2.794;2022-07-29T18:45:10;4.20;;;1.65;;
65092;SDS011;52025;50.288;2.794;2022-07-29T18:47:36;3.60;;;1.42;;
65092;SDS011;52025;50.288;2.794;2022-07-29T18:50:05;5.65;;;2.35;;
65092;SDS011;52025;50.288;2.794;2022-07-29T18:52:30;3.17;;;1.20;;
65092;SDS011;52025;50.288;2.794;2022-07-29T18:54:55;4.95;;;2.42;;
65092;SDS011;52025;50.288;2.794;2022-07-29T18:57:21;4.38;;;1.77;;
65092;SDS011;52025;50.288;2.794;2022-07-29T18:59:47;5.10;;;1.38;;
65092;SDS011;52025;50.288;2.794;2022-07-29T19:02:12;3.22;;;1.40;;
65092;SDS011;52025;50.288;2.794;2022-07-29T19:04:39;4.75;;;2.00;;
65092;SDS011;52025;50.288;2.794;2022-07-29T19:07:05;3.65;;;1.35;;
65092;SDS011;52025;50.288;2.794;2022-07-29T19:09:30;2.83;;;1.33;;
65092;SDS011;52025;50.288;2.794;2022-07-29T19:11:55;3.47;;;1.10;;
65092;SDS011;52025;50.288;2.794;2022-07-29T19:14:21;2.22;;;0.80;;
65092;SDS011;52025;50.288;2.794;2022-07-29T19:16:46;1.60;;;0.87;;
65092;SDS011;52025;50.288;2.794;2022-07-29T19:19:11;1.92;;;0.90;;
65092;SDS011;52025;50.288;2.794;2022-07-29T19:21:38;3.50;;;1.02;;
65092;SDS011;52025;50.288;2.794;2022-07-29T19:24:04;2.88;;;0.98;;
65092;SDS011;52025;50.288;2.794;2022-07-29T19:26:29;1.23;;;0.70;;
65092;SDS011;52025;50.288;2.794;2022-07-29T19:28:55;1.65;;;0.70;;
65092;SDS011;52025;50.288;2.794;2022-07-29T19:31:20;1.95;;;0.70;;
65092;SDS011;52025;50.288;2.794;2022-07-29T19:33:45;2.92;;;0.88;;
65092;SDS011;52025;50.288;2.794;2022-07-29T19:36:10;1.73;;;0.80;;
65092;SDS011;52025;50.288;2.794;2022-07-29T19:38:36;1.27;;;0.57;;
65092;SDS011;52025;50.288;2.794;2022-07-29T19:41:03;0.50;;;0.50;;
65092;SDS011;52025;50.288;2.794;2022-07-29T19:43:30;1.15;;;0.57;;
65092;SDS011;52025;50.288;2.794;2022-07-29T19:45:55;2.55;;;0.95;;
65092;SDS011;52025;50.288;2.794;2022-07-29T19:48:20;1.40;;;0.90;;
65092;SDS011;52025;50.288;2.794;2022-07-29T19:50:46;1.20;;;0.65;;
65092;SDS011;52025;50.288;2.794;2022-07-29T19:53:11;1.10;;;0.80;;
65092;SDS011;52025;50.288;2.794;2022-07-29T19:55:36;0.60;;;0.50;;